Time;durP1;ratioP1;P1;durP2;ratioP2;P2;SDS_P1;SDS_P2;PMS_P1;PMS_P2;Temp;Humidity;BMP_temperature;BMP_pressure;BME280_temperature;BME280_humidity;BME280_pressure;Samples;Min_cycle;Max_cycle;Signal;HPM_P1;HPM_P2
2022/01/18 00:01:46;;;;;;;8.18;3.17;;;;;;;-1.91;76.01;99577.31;5110404;28;20482;-71
2022/01/18 00:04:12;;;;;;;12.05;2.90;;;;;;;-1.91;76.02;99565.69;5092310;28;20043;-72
2022/01/18 00:06:40;;;;;;;12.05;3.45;;;;;;;-1.90;76.46;99572.75;5110786;28;20024;-71
2022/01/18 00:09:06;;;;;;;9.45;3.13;;;;;;;-1.92;75.92;99572.09;5091943;28;20623;-71
2022/01/18 00:11:40;;;;;;;10.95;3.10;;;;;;;-1.95;76.08;99584.88;5110005;28;20106;-72
2022/01/18 00:14:13;;;;;;;11.55;2.80;;;;;;;-1.96;75.98;99582.41;5110306;28;20026;-71
2022/01/18 00:17:00;;;;;;;11.52;3.10;;;;;;;-1.98;75.96;99579.06;5109993;28;20480;-71
2022/01/18 00:19:25;;;;;;;14.68;4.43;;;;;;;-1.98;76.03;99579.88;5108233;28;20478;-71
2022/01/18 00:24:22;;;;;;;25.98;6.65;;;;;;;-1.98;76.12;99589.81;5110464;28;20032;-71
2022/01/18 00:26:47;;;;;;;34.97;8.45;;;;;;;-1.98;76.12;99589.81;5110461;28;20019;-72
2022/01/18 00:29:16;;;;;;;13.38;3.50;;;;;;;-2.01;76.22;99582.13;5110841;28;20004;-71
2022/01/18 00:34:23;;;;;;;20.02;3.60;;;;;;;-2.05;76.32;99592.44;5110879;28;20051;-71
2022/01/18 00:37:11;;;;;;;10.45;3.00;;;;;;;-2.05;76.29;99605.03;5106641;28;20022;-71
2022/01/18 00:39:36;;;;;;;13.82;3.35;;;;;;;-2.07;76.29;99604.38;5108424;28;20107;-71
2022/01/18 00:42:03;;;;;;;15.18;3.53;;;;;;;-2.06;76.20;99608.72;5109978;28;20035;-71
2022/01/18 00:44:29;;;;;;;13.27;2.92;;;;;;;-2.08;76.69;99616.16;5110418;28;20183;-71
2022/01/18 00:46:54;;;;;;;10.98;3.28;;;;;;;-2.11;76.58;99612.81;5109734;28;20016;-71
2022/01/18 00:49:20;;;;;;;9.73;3.65;;;;;;;-2.12;76.63;99621.88;5109168;28;20023;-71
2022/01/18 00:51:52;;;;;;;8.20;3.00;;;;;;;-2.17;76.01;99621.59;5109657;28;20078;-71
2022/01/18 00:54:23;;;;;;;11.95;3.20;;;;;;;-2.18;76.32;99625.31;5110218;28;20379;-71
2022/01/18 00:56:51;;;;;;;11.57;3.53;;;;;;;-2.20;76.45;99638.09;5109239;28;20024;-71
2022/01/18 00:59:17;;;;;;;11.43;3.08;;;;;;;-2.23;76.48;99638.47;5109367;28;20100;-71
2022/01/18 01:01:43;;;;;;;9.77;2.55;;;;;;;-2.24;76.20;99639.47;5109538;28;20031;-71
2022/01/18 01:04:08;;;;;;;7.70;3.25;;;;;;;-2.29;76.36;99636.53;5109459;28;20034;-71
2022/01/18 01:06:34;;;;;;;10.60;3.33;;;;;;;-2.30;76.78;99645.59;5109445;28;20036;-71
2022/01/18 01:09:01;;;;;;;9.80;3.35;;;;;;;-2.30;76.72;99642.91;5109500;28;20103;-71
2022/01/18 01:11:28;;;;;;;10.23;3.00;;;;;;;-2.29;76.78;99633.84;5109010;28;20027;-72
2022/01/18 01:13:58;;;;;;;15.30;3.65;;;;;;;-2.32;76.67;99637.72;5109660;28;20031;-71
2022/01/18 01:19:18;;;;;;;10.40;3.50;;;;;;;-2.38;76.76;99659.13;5109124;28;20039;-71
2022/01/18 01:43:26;;;;;;;11.15;3.45;;;;;;;-2.49;77.05;99655.03;5109331;28;20038;-71
2022/01/18 01:45:54;;;;;;;8.38;3.03;;;;;;;-2.51;76.53;99659.72;5109285;28;20022;-71
2022/01/18 01:48:22;;;;;;;7.03;2.25;;;;;;;-2.51;77.22;99654.38;5109399;28;20011;-72
2022/01/18 01:50:53;;;;;;;9.93;2.85;;;;;;;-2.56;77.05;99663.81;5091026;28;20015;-72
2022/01/18 01:53:21;;;;;;;8.98;2.83;;;;;;;-2.60;77.57;99661.63;5106379;28;20026;-71
2022/01/18 01:55:48;;;;;;;6.10;2.45;;;;;;;-2.61;77.48;99655.44;5109151;28;20028;-72
2022/01/18 01:58:14;;;;;;;11.68;3.03;;;;;;;-2.62;77.31;99660.97;5108879;28;20035;-72
2022/01/18 02:00:49;;;;;;;8.48;3.53;;;;;;;-2.62;77.63;99661.81;5111203;28;20019;-72
2022/01/18 02:03:16;;;;;;;10.40;3.53;;;;;;;-2.62;77.47;99669.03;5113085;28;20023;-72
2022/01/18 02:05:41;;;;;;;13.50;3.20;;;;;;;-2.63;77.18;99664.69;5113010;28;20024;-71
2022/01/18 02:08:07;;;;;;;8.13;3.15;;;;;;;-2.64;77.41;99666.53;5092923;28;20023;-72
2022/01/18 02:10:38;;;;;;;9.90;2.70;;;;;;;-2.66;77.66;99660.53;5112855;28;20024;-72
2022/01/18 02:13:05;;;;;;;8.05;2.47;;;;;;;-2.64;77.76;99665.69;5112520;28;20050;-71
2022/01/18 02:15:31;;;;;;;16.20;3.55;;;;;;;-2.63;77.55;99657.47;5094139;28;20445;-71
2022/01/18 02:23:29;;;;;;;9.68;3.17;;;;;;;-2.66;77.67;99641.72;5111113;28;20047;-71
2022/01/18 02:25:55;;;;;;;13.98;4.95;;;;;;;-2.70;77.89;99641.25;5112713;28;20039;-71
2022/01/18 02:28:22;;;;;;;9.95;3.35;;;;;;;-2.68;78.40;99633.00;5093560;28;20023;-71
2022/01/18 02:30:48;;;;;;;16.08;6.38;;;;;;;-2.70;78.18;99638.56;5111707;28;20024;-71
2022/01/18 02:33:14;;;;;;;10.60;2.60;;;;;;;-2.70;78.27;99635.88;5111738;28;20026;-71
2022/01/18 02:35:40;;;;;;;13.27;3.58;;;;;;;-2.71;78.27;99644.09;5093734;28;20024;-71
2022/01/18 02:38:06;;;;;;;9.57;3.10;;;;;;;-2.74;78.33;99639.09;5112134;28;20024;-71
2022/01/18 02:40:32;;;;;;;7.88;2.75;;;;;;;-2.78;78.44;99638.63;5112002;28;20525;-72
2022/01/18 02:43:01;;;;;;;12.25;3.47;;;;;;;-2.80;78.27;99647.88;5094124;28;20027;-72
2022/01/18 02:45:27;;;;;;;11.18;3.00;;;;;;;-2.83;78.46;99654.44;5112111;28;20022;-71
2022/01/18 02:47:54;;;;;;;8.63;3.17;;;;;;;-2.82;78.14;99656.13;5112479;28;20378;-71
2022/01/18 02:50:21;;;;;;;8.68;2.83;;;;;;;-2.79;78.41;99655.75;5112099;28;20035;-71
2022/01/18 02:52:47;;;;;;;10.45;3.50;;;;;;;-2.79;78.22;99650.38;5112032;28;20077;-72
2022/01/18 02:55:13;;;;;;;10.25;3.20;;;;;;;-2.77;78.77;99656.41;5112255;28;20032;-72
2022/01/18 02:57:53;;;;;;;12.82;3.45;;;;;;;-2.80;78.56;99653.22;5093244;28;20502;-72
2022/01/18 03:00:27;;;;;;;13.50;3.30;;;;;;;-2.82;78.55;99652.56;5112194;28;20058;-71
2022/01/18 03:03:13;;;;;;;11.73;3.38;;;;;;;-2.85;78.08;99651.91;5111489;28;20076;-71
2022/01/18 03:05:44;;;;;;;10.02;3.60;;;;;;;-2.86;79.17;99657.47;5110836;28;20060;-71
2022/01/18 03:08:11;;;;;;;8.85;3.05;;;;;;;-2.84;79.11;99648.22;5111595;28;20111;-71
2022/01/18 03:10:39;;;;;;;11.85;3.50;;;;;;;-2.84;78.64;99666.19;5111272;28;20027;-70
2022/01/18 03:13:05;;;;;;;10.48;3.00;;;;;;;-2.87;78.94;99648.59;5109662;28;21298;-72
2022/01/18 03:15:32;;;;;;;8.95;2.90;;;;;;;-2.87;78.93;99671.91;5111375;28;20134;-71
2022/01/18 03:17:57;;;;;;;11.13;3.45;;;;;;;-2.90;79.02;99670.44;5111300;28;20039;-71
2022/01/18 03:20:24;;;;;;;10.52;3.10;;;;;;;-2.86;78.91;99670.91;5093529;28;20028;-72
2022/01/18 03:22:50;;;;;;;9.38;3.15;;;;;;;-2.87;79.15;99680.81;5111448;28;20023;-72
2022/01/18 03:28:04;;;;;;;8.82;3.08;;;;;;;-2.86;78.82;99687.00;5108943;28;20102;-70
2022/01/18 03:30:37;;;;;;;10.65;4.05;;;;;;;-2.86;79.06;99687.88;5107991;28;20032;-69
2022/01/18 03:33:05;;;;;;;13.60;3.90;;;;;;;-2.86;79.23;99695.91;5091793;28;20035;-70
2022/01/18 03:35:31;;;;;;;20.83;7.07;;;;;;;-2.85;79.46;99694.06;5110999;28;20055;-69
2022/01/18 03:37:57;;;;;;;29.27;11.07;;;;;;;-2.82;79.26;99693.69;5110619;28;20050;-70
2022/01/18 03:40:23;;;;;;;19.73;8.70;;;;;;;-2.81;79.13;99692.69;5110884;28;20044;-70
2022/01/18 03:42:49;;;;;;;18.85;7.63;;;;;;;-2.83;79.13;99697.41;5110147;28;20029;-70
2022/01/18 03:45:17;;;;;;;19.02;6.22;;;;;;;-2.83;79.42;99697.41;5110894;28;20575;-70
2022/01/18 03:47:45;;;;;;;17.70;5.68;;;;;;;-2.82;79.34;99698.22;5110473;28;20023;-70
2022/01/18 03:50:12;;;;;;;15.23;5.07;;;;;;;-2.77;79.68;99712.81;5111046;28;20030;-70
2022/01/18 03:52:38;;;;;;;11.52;3.22;;;;;;;-2.67;79.07;99703.69;5109390;28;20038;-70
2022/01/18 03:55:05;;;;;;;15.18;3.60;;;;;;;-2.60;79.91;99712.66;5110782;28;20507;-70
2022/01/18 03:57:30;;;;;;;12.38;3.67;;;;;;;-2.56;79.57;99717.53;5110105;28;20116;-70
2022/01/18 03:59:56;;;;;;;13.90;4.15;;;;;;;-2.50;79.50;99721.34;5110684;28;20033;-71
2022/01/18 04:02:21;;;;;;;15.85;3.50;;;;;;;-2.43;79.77;99724.13;5110450;28;20123;-70
2022/01/18 04:04:47;;;;;;;10.27;3.45;;;;;;;-2.37;79.57;99726.09;5110645;28;20023;-70
2022/01/18 04:07:12;;;;;;;15.75;4.65;;;;;;;-2.32;79.07;99718.31;5110609;28;20485;-70
2022/01/18 04:09:38;;;;;;;15.82;3.80;;;;;;;-2.28;79.17;99714.25;5091974;28;20059;-70
2022/01/18 04:12:05;;;;;;;9.23;3.05;;;;;;;-2.26;79.15;99714.91;5109850;28;20471;-70
2022/01/18 04:14:30;;;;;;;9.65;2.67;;;;;;;-2.25;79.11;99727.34;5110498;28;20106;-70
2022/01/18 04:17:16;;;;;;;15.88;4.65;;;;;;;-2.23;79.08;99743.28;5110050;28;20026;-69
2022/01/18 04:27:44;;;;;;;12.35;2.88;;;;;;;-1.99;78.95;99752.16;5110170;28;20125;-70
2022/01/18 04:30:09;;;;;;;11.80;3.33;;;;;;;-1.93;79.02;99761.34;5110002;28;20023;-70
2022/01/18 04:32:35;;;;;;;25.10;6.60;;;;;;;-1.92;78.68;99763.84;5110058;28;20020;-71
2022/01/18 04:35:01;;;;;;;21.35;6.20;;;;;;;-1.85;78.75;99764.81;5110122;28;20076;-70
2022/01/18 04:37:26;;;;;;;17.33;5.50;;;;;;;-1.81;77.96;99770.63;5109666;28;20043;-70
2022/01/18 04:39:51;;;;;;;19.73;4.95;;;;;;;-1.81;78.54;99774.16;5109943;28;20052;-70
2022/01/18 04:42:38;;;;;;;26.48;7.38;;;;;;;-1.78;78.53;99782.88;5091602;28;20032;-70
2022/01/18 04:50:32;;;;;;;24.35;7.03;;;;;;;-1.62;78.52;99804.25;5109044;28;20038;-71
2022/01/18 04:52:57;;;;;;;16.15;4.85;;;;;;;-1.59;78.05;99798.50;5109706;28;20049;-71
2022/01/18 04:55:30;;;;;;;19.85;4.20;;;;;;;-1.55;77.92;99804.34;5110172;28;20034;-71
2022/01/18 04:57:55;;;;;;;15.77;4.45;;;;;;;-1.55;77.90;99804.34;5109685;28;20088;-71
2022/01/18 05:00:22;;;;;;;14.10;4.03;;;;;;;-1.54;77.97;99795.25;5109560;28;20394;-71
2022/01/18 05:02:47;;;;;;;16.38;4.43;;;;;;;-1.52;77.88;99804.81;5109527;28;20459;-71
2022/01/18 05:05:22;;;;;;;14.32;4.05;;;;;;;-1.52;77.92;99793.22;5109791;28;20096;-71
2022/01/18 05:07:48;;;;;;;21.48;6.10;;;;;;;-1.50;78.34;99793.88;5109321;28;20467;-71
2022/01/18 05:10:16;;;;;;;11.50;2.97;;;;;;;-1.46;77.82;99805.13;5109355;28;20031;-70
2022/01/18 05:12:46;;;;;;;8.25;2.80;;;;;;;-1.40;77.79;99805.19;5091270;28;20155;-71
2022/01/18 05:15:38;;;;;;;;;;;;;;;-1.36;77.98;99798.44;5091717;28;20364;-71
2022/01/18 05:21:08;;;;;;;10.23;2.70;;;;;;;-1.34;77.56;99803.63;5109426;28;20097;-71
2022/01/18 05:23:29;;;;;;;11.00;3.67;;;;;;;-1.33;77.29;99802.59;5109117;28;20114;-71
2022/01/18 05:25:55;;;;;;;7.00;3.17;;;;;;;-1.29;77.74;99797.69;5109542;28;20122;-71
2022/01/18 05:28:20;;;;;;;8.68;2.85;;;;;;;-1.27;77.71;99796.47;5109486;28;20061;-72
2022/01/18 05:30:46;;;;;;;9.30;2.38;;;;;;;-1.23;77.38;99799.66;5090546;28;20031;-71
2022/01/18 05:33:11;;;;;;;15.20;5.85;;;;;;;-1.23;77.37;99810.41;5109432;28;20051;-71
2022/01/18 05:35:37;;;;;;;12.98;4.25;;;;;;;-1.25;77.61;99815.97;5111844;28;20028;-71
2022/01/18 05:38:02;;;;;;;9.73;3.22;;;;;;;-1.23;77.38;99822.00;5113602;28;20688;-72
2022/01/18 05:40:28;;;;;;;13.80;4.47;;;;;;;-1.21;77.54;99822.66;5112576;28;20602;-72
2022/01/18 05:42:53;;;;;;;16.60;6.18;;;;;;;-1.18;77.25;99821.44;5112774;28;20041;-71
2022/01/18 05:45:19;;;;;;;20.30;6.93;;;;;;;-1.20;77.38;99813.56;5094825;28;20669;-73
2022/01/18 05:47:45;;;;;;;19.45;5.85;;;;;;;-1.21;77.34;99819.13;5114327;28;20027;-71
2022/01/18 05:50:11;;;;;;;13.30;3.65;;;;;;;-1.22;77.47;99817.44;5113592;28;20020;-72
2022/01/18 05:52:37;;;;;;;14.90;4.30;;;;;;;-1.23;77.50;99816.63;5113980;28;20463;-72
2022/01/18 05:55:04;;;;;;;13.50;3.75;;;;;;;-1.23;77.60;99819.31;5115060;27;20053;-73
2022/01/18 05:57:30;;;;;;;12.98;3.08;;;;;;;-1.21;77.46;99819.13;5114133;28;20053;-73
2022/01/18 06:00:02;;;;;;;17.85;5.00;;;;;;;-1.19;78.12;99814.38;5113269;28;20034;-72
2022/01/18 06:07:40;;;;;;;12.75;3.70;;;;;;;-1.14;77.28;99824.59;5112769;28;20402;-73
2022/01/18 06:10:05;;;;;;;11.57;3.15;;;;;;;-1.12;77.52;99826.09;5114495;27;20107;-73
2022/01/18 06:12:31;;;;;;;10.55;3.00;;;;;;;-1.10;77.63;99828.59;5114400;28;20429;-73
2022/01/18 06:14:58;;;;;;;16.40;4.03;;;;;;;-1.10;77.30;99829.44;5096336;28;20441;-75
2022/01/18 06:17:23;;;;;;;13.80;3.40;;;;;;;-1.10;77.18;99834.81;5115215;27;20028;-72
2022/01/18 06:19:48;;;;;;;8.98;3.60;;;;;;;-1.09;77.67;99831.09;5115208;27;20088;-72
2022/01/18 06:22:14;;;;;;;15.32;4.57;;;;;;;-1.04;77.07;99835.94;5113814;28;20046;-73
2022/01/18 06:24:39;;;;;;;14.40;3.97;;;;;;;-1.06;77.46;99830.72;5114109;27;20032;-72
2022/01/18 06:27:06;;;;;;;9.45;3.65;;;;;;;-1.05;77.30;99845.03;5114141;27;20532;-71
2022/01/18 06:29:31;;;;;;;18.70;6.07;;;;;;;-1.06;77.04;99841.50;5111257;28;20038;-73
2022/01/18 06:31:56;;;;;;;14.40;4.47;;;;;;;-1.06;77.19;99840.69;5107566;28;20027;-72
2022/01/18 06:34:22;;;;;;;20.02;6.25;;;;;;;-1.07;77.44;99847.91;5114142;27;20042;-72
2022/01/18 06:36:47;;;;;;;18.55;4.93;;;;;;;-1.08;77.42;99845.41;5114180;27;20160;-72
2022/01/18 06:39:16;;;;;;;21.98;6.25;;;;;;;-1.11;77.51;99846.59;5114674;27;20043;-72
2022/01/18 06:41:42;;;;;;;18.38;5.65;;;;;;;-1.11;77.27;99848.47;5113077;28;20414;-72
2022/01/18 06:44:07;;;;;;;21.98;7.63;;;;;;;-1.13;77.19;99842.44;5113713;28;20027;-73
2022/01/18 06:46:33;;;;;;;15.85;4.93;;;;;;;-1.11;77.39;99852.00;5113641;27;20035;-72
2022/01/18 06:48:58;;;;;;;20.90;6.38;;;;;;;-1.08;77.51;99864.25;5115425;27;20038;-72
2022/01/18 06:51:24;;;;;;;12.20;5.55;;;;;;;-1.06;77.33;99862.22;5094773;28;20032;-73
2022/01/18 06:53:49;;;;;;;17.15;7.25;;;;;;;-1.04;77.22;99876.34;5113365;28;20031;-73
2022/01/18 06:56:17;;;;;;;21.42;9.45;;;;;;;-1.05;77.01;99872.78;5113539;27;20425;-73
2022/01/18 06:58:43;;;;;;;29.75;13.93;;;;;;;-1.03;77.29;99890.63;5112694;28;20035;-73
2022/01/18 07:01:10;;;;;;;16.25;6.88;;;;;;;-1.08;77.46;99875.03;5112697;28;20028;-73
2022/01/18 07:03:36;;;;;;;24.80;10.10;;;;;;;-1.14;77.05;99879.28;5113504;28;20039;-73
2022/01/18 07:06:02;;;;;;;23.95;8.68;;;;;;;-1.14;77.39;99887.34;5113533;27;20028;-73
2022/01/18 07:08:27;;;;;;;26.63;11.98;;;;;;;-1.16;77.62;99894.78;5096128;27;20108;-72
2022/01/18 07:10:52;;;;;;;29.83;12.02;;;;;;;-1.16;77.37;99893.97;5115258;27;20118;-72
2022/01/18 07:13:18;;;;;;;48.47;12.73;;;;;;;-1.09;77.58;99898.41;5113554;27;20092;-73
2022/01/18 07:15:43;;;;;;;51.88;15.05;;;;;;;-1.03;77.53;99901.41;5108736;27;20046;-72
2022/01/18 07:18:10;;;;;;;56.88;14.80;;;;;;;-0.98;77.55;99901.69;5112393;28;20055;-70
2022/01/18 07:20:38;;;;;;;44.88;14.02;;;;;;;-1.01;77.14;99912.81;5113702;27;20085;-70
2022/01/18 07:23:03;;;;;;;31.42;10.80;;;;;;;-1.04;77.15;99908.66;5110386;27;20028;-71
2022/01/18 07:25:29;;;;;;;29.58;10.75;;;;;;;-1.08;76.94;99915.41;5112200;28;20126;-72
2022/01/18 07:27:55;;;;;;;22.05;6.82;;;;;;;-1.11;76.99;99910.41;5111118;28;20073;-71
2022/01/18 07:30:20;;;;;;;40.60;13.73;;;;;;;-1.12;77.72;99906.03;5111215;27;20027;-71
2022/01/18 07:32:45;;;;;;;26.20;8.50;;;;;;;-1.12;77.46;99909.56;5111380;28;20023;-71
2022/01/18 07:35:12;;;;;;;21.08;7.97;;;;;;;-1.13;77.31;99923.22;5094776;27;20466;-70
2022/01/18 07:37:38;;;;;;;20.13;6.95;;;;;;;-1.13;77.01;99921.34;5111728;28;20599;-69
2022/01/18 07:40:05;;;;;;;35.95;10.63;;;;;;;-1.12;77.20;99909.56;5111026;28;20044;-68
2022/01/18 07:42:31;;;;;;;30.77;10.18;;;;;;;-1.06;77.15;99921.47;5092305;28;20055;-69
2022/01/18 07:44:57;;;;;;;18.58;5.53;;;;;;;-1.03;77.54;99926.47;5112224;27;20058;-69
2022/01/18 07:47:22;;;;;;;23.98;7.53;;;;;;;-1.00;77.63;99926.09;5112457;28;20034;-69
2022/01/18 07:49:48;;;;;;;19.45;5.72;;;;;;;-0.99;77.49;99925.06;5114913;27;20031;-69
2022/01/18 07:52:13;;;;;;;24.73;7.30;;;;;;;-0.93;77.91;99943.19;5111313;28;20080;-69
2022/01/18 07:54:39;;;;;;;28.65;8.07;;;;;;;-0.88;77.42;99941.81;5110819;28;20066;-69
2022/01/18 07:57:04;;;;;;;16.58;5.55;;;;;;;-0.82;77.43;99949.16;5111910;28;20475;-69
2022/01/18 07:59:30;;;;;;;27.13;8.43;;;;;;;-0.76;77.45;99943.84;5109899;27;20035;-68
2022/01/18 08:01:55;;;;;;;26.42;7.95;;;;;;;-0.66;77.45;99948.97;5111676;27;20091;-69
2022/01/18 08:04:22;;;;;;;34.85;11.55;;;;;;;-0.66;76.85;99956.22;5108925;28;20577;-70
2022/01/18 08:06:47;;;;;;;25.40;8.98;;;;;;;-0.65;76.71;99966.81;5105225;27;20028;-69
2022/01/18 08:09:16;;;;;;;31.45;7.05;;;;;;;-0.66;76.73;99964.28;5092603;28;20035;-71
2022/01/18 08:11:42;;;;;;;22.97;8.00;;;;;;;-0.69;76.61;99972.75;5109871;27;20039;-68
2022/01/18 08:14:13;;;;;;;19.42;6.00;;;;;;;-0.64;75.87;99976.56;5090869;28;20024;-67
2022/01/18 08:16:48;;;;;;;16.02;5.60;;;;;;;-0.70;76.41;99982.69;5109801;28;20483;-67
2022/01/18 08:19:14;;;;;;;22.40;6.78;;;;;;;-0.65;76.28;99987.53;5110487;28;20035;-68
2022/01/18 08:21:39;;;;;;;13.05;4.95;;;;;;;-0.65;76.16;99982.13;5091873;28;20035;-66
2022/01/18 08:24:05;;;;;;;26.20;7.75;;;;;;;-0.64;76.57;99987.34;5110442;27;20026;-68
2022/01/18 08:26:30;;;;;;;33.53;10.40;;;;;;;-0.62;76.39;99992.53;5109239;28;20055;-67
2022/01/18 08:28:56;;;;;;;28.08;8.90;;;;;;;-0.58;76.89;99993.00;5107191;27;20074;-68
2022/01/18 08:31:21;;;;;;;28.02;6.22;;;;;;;-0.54;76.00;99994.31;5089551;28;20027;-67
2022/01/18 08:33:46;;;;;;;25.17;5.38;;;;;;;-0.46;76.28;100005.00;5112993;27;20035;-67
2022/01/18 08:36:12;;;;;;;20.48;6.35;;;;;;;-0.45;75.85;100001.28;5092764;28;20479;-67
2022/01/18 08:38:39;;;;;;;43.80;18.52;;;;;;;-0.39;75.70;100008.63;5108172;28;20058;-67
2022/01/18 08:41:06;;;;;;;18.60;5.32;;;;;;;-0.32;75.47;100016.81;5091191;28;20105;-69
2022/01/18 08:43:32;;;;;;;15.68;5.60;;;;;;;-0.29;75.71;100012.91;5113185;27;20039;-69
2022/01/18 08:45:59;;;;;;;23.33;7.25;;;;;;;-0.24;75.36;100015.88;5093649;28;20059;-69
2022/01/18 08:48:25;;;;;;;23.77;8.25;;;;;;;-0.27;74.75;100016.25;5110637;28;20103;-68
2022/01/18 08:50:50;;;;;;;19.92;6.15;;;;;;;-0.26;74.47;100015.25;5091519;28;20111;-69
2022/01/18 08:53:15;;;;;;;19.15;4.47;;;;;;;-0.25;75.29;100019.59;5092156;28;20034;-68
2022/01/18 08:55:41;;;;;;;19.25;4.93;;;;;;;-0.24;74.40;100030.19;5108489;27;20081;-68
2022/01/18 08:58:08;;;;;;;14.40;4.97;;;;;;;-0.25;74.34;100033.91;5110251;28;20059;-68
2022/01/18 09:00:33;;;;;;;16.02;4.70;;;;;;;-0.21;74.21;100037.09;5107517;28;20147;-68
2022/01/18 09:02:59;;;;;;;15.52;7.20;;;;;;;-0.18;74.74;100034.84;5109670;28;20084;-69
2022/01/18 09:05:25;;;;;;;14.65;4.75;;;;;;;-0.12;74.21;100057.53;5109622;28;20040;-73
2022/01/18 09:07:52;;;;;;;13.20;5.00;;;;;;;-0.12;74.16;100054.00;5111316;28;20054;-68
2022/01/18 09:10:18;;;;;;;15.70;5.50;;;;;;;-0.09;73.88;100059.84;5107657;28;20563;-69
2022/01/18 09:12:43;;;;;;;14.80;4.65;;;;;;;-0.04;74.18;100067.41;5108622;28;20035;-67
2022/01/18 09:15:10;;;;;;;16.40;5.25;;;;;;;0.01;73.60;100066.81;5108713;28;20093;-68
2022/01/18 09:17:38;;;;;;;16.33;5.90;;;;;;;0.06;73.55;100076.03;5110260;28;20063;-69
2022/01/18 09:20:06;;;;;;;18.35;7.10;;;;;;;0.11;73.58;100075.47;5108827;28;20035;-69
2022/01/18 09:22:38;;;;;;;25.38;10.93;;;;;;;0.13;73.63;100073.44;5108866;28;20044;-69
2022/01/18 09:25:06;;;;;;;17.38;8.48;;;;;;;0.16;73.62;100080.28;5108814;28;20028;-69
2022/01/18 09:27:31;;;;;;;27.00;11.57;;;;;;;0.17;73.51;100093.63;5108741;28;20110;-70
2022/01/18 09:29:57;;;;;;;15.15;6.95;;;;;;;0.17;72.46;100084.66;5108973;28;20123;-69
2022/01/18 09:32:22;;;;;;;16.95;8.27;;;;;;;0.10;72.61;100087.28;5109829;28;20027;-70
2022/01/18 09:34:49;;;;;;;17.83;6.60;;;;;;;0.11;72.52;100087.09;5107969;28;20480;-70
2022/01/18 09:37:14;;;;;;;15.95;6.68;;;;;;;0.10;72.38;100093.50;5106822;28;20031;-70
2022/01/18 09:39:40;;;;;;;10.65;4.72;;;;;;;0.10;72.12;100082.72;5107459;28;20034;-70
2022/01/18 09:42:05;;;;;;;13.05;7.00;;;;;;;0.14;72.33;100097.50;5106686;28;20056;-70
2022/01/18 09:44:31;;;;;;;17.00;5.43;;;;;;;0.18;71.80;100089.03;5106344;28;20028;-69
2022/01/18 09:46:57;;;;;;;20.25;6.22;;;;;;;0.19;72.03;100093.41;5107069;28;20107;-71
2022/01/18 09:49:24;;;;;;;15.02;5.45;;;;;;;0.19;71.53;100094.28;5109439;28;20555;-72
2022/01/18 09:51:50;;;;;;;13.70;5.10;;;;;;;0.21;71.00;100089.50;5104095;28;20028;-74
2022/01/18 09:54:16;;;;;;;14.95;6.40;;;;;;;0.24;71.63;100099.91;5108883;28;20475;-72
2022/01/18 09:56:41;;;;;;;16.10;5.60;;;;;;;0.22;71.08;100098.44;5108989;28;20019;-72
2022/01/18 09:59:08;;;;;;;17.02;5.00;;;;;;;0.25;70.58;100093.50;5108862;28;20043;-73
2022/01/18 10:01:33;;;;;;;12.73;4.88;;;;;;;0.26;71.34;100103.25;5108782;28;20024;-73
2022/01/18 10:04:22;;;;;;;16.65;7.10;;;;;;;0.20;71.40;100095.09;5109014;28;20102;-70
2022/01/18 10:06:58;;;;;;;16.17;8.35;;;;;;;0.18;70.93;100113.31;5109610;28;20015;-69
2022/01/18 10:09:25;;;;;;;14.68;5.90;;;;;;;0.15;70.59;100109.16;5089859;28;20032;-72
2022/01/18 10:12:14;;;;;;;14.10;6.22;;;;;;;0.20;71.01;100108.59;5088913;28;20030;-71
2022/01/18 10:14:51;;;;;;;19.50;6.50;;;;;;;0.27;70.66;100104.94;5110310;28;20031;-72
2022/01/18 10:17:30;;;;;;;15.32;5.18;;;;;;;0.27;70.46;100106.81;5108894;28;20054;-71
2022/01/18 10:20:03;;;;;;;15.15;5.00;;;;;;;0.28;70.58;100101.22;5109815;28;20096;-73
2022/01/18 10:22:39;;;;;;;22.70;5.75;;;;;;;0.31;70.38;100105.41;5093578;28;20028;-71
2022/01/18 10:25:22;;;;;;;19.50;5.47;;;;;;;0.26;69.90;100105.13;5113175;28;20031;-70
2022/01/18 10:27:51;;;;;;;16.67;5.63;;;;;;;0.20;70.27;100116.69;5111894;28;20047;-71
2022/01/18 10:30:33;;;;;;;16.25;6.13;;;;;;;0.25;70.26;100111.56;5113019;28;20704;-72
2022/01/18 10:33:20;;;;;;;15.20;5.80;;;;;;;0.31;70.64;100116.22;5112752;28;20039;-70
2022/01/18 10:36:07;;;;;;;12.73;4.25;;;;;;;0.33;69.57;100116.00;5113345;28;20056;-73
2022/01/18 10:38:33;;;;;;;14.55;4.97;;;;;;;0.34;70.09;100110.44;5113129;28;20719;-71
2022/01/18 10:41:30;;;;;;;14.13;6.18;;;;;;;0.34;70.01;100114.97;5112591;28;20044;-69
2022/01/18 10:44:23;;;;;;;17.00;5.93;;;;;;;0.28;70.30;100124.69;5111405;28;20111;-71
2022/01/18 10:46:51;;;;;;;16.98;6.45;;;;;;;0.30;69.57;100119.94;5108789;28;20032;-73
2022/01/18 10:49:35;;;;;;;17.67;5.50;;;;;;;0.36;69.68;100118.34;5112951;28;20028;-76
2022/01/18 10:52:10;;;;;;;11.73;4.68;;;;;;;0.49;69.31;100118.50;5107137;28;20062;-70
2022/01/18 10:54:48;;;;;;;12.88;4.60;;;;;;;0.50;69.29;100114.78;5113243;28;20016;-69
2022/01/18 10:57:21;;;;;;;13.60;4.95;;;;;;;0.57;69.21;100118.41;5112642;28;20407;-70
2022/01/18 10:59:48;;;;;;;18.05;5.03;;;;;;;0.55;68.29;100119.59;5112654;28;20059;-70
2022/01/18 11:02:19;;;;;;;17.35;5.32;;;;;;;0.49;68.49;100113.09;5111823;28;20050;-71
2022/01/18 11:04:55;;;;;;;18.02;8.40;;;;;;;0.41;68.45;100118.59;5112618;28;20027;-74
2022/01/18 11:07:26;;;;;;;17.05;7.45;;;;;;;0.38;68.55;100111.75;5112537;28;20028;-71
2022/01/18 11:09:52;;;;;;;16.45;8.20;;;;;;;0.35;68.67;100111.25;5112439;28;20386;-71
2022/01/18 11:12:24;;;;;;;26.60;11.55;;;;;;;0.33;68.95;100124.97;5111120;28;20039;-72
2022/01/18 11:15:00;;;;;;;35.70;14.88;;;;;;;0.40;69.43;100116.94;5112311;28;20536;-71
2022/01/18 11:17:27;;;;;;;31.92;13.13;;;;;;;0.44;68.47;100110.13;5092532;28;20035;-70
2022/01/18 11:19:57;;;;;;;36.25;17.33;;;;;;;0.41;68.52;100118.59;5112051;28;20479;-70
2022/01/18 11:22:26;;;;;;;28.05;11.38;;;;;;;0.43;68.77;100105.75;5111897;28;20031;-71
2022/01/18 11:24:55;;;;;;;20.17;6.57;;;;;;;0.38;68.39;100109.03;5110411;28;20041;-70
2022/01/18 11:27:20;;;;;;;23.55;9.85;;;;;;;0.33;68.36;100118.69;5111369;28;20012;-67
2022/01/18 11:29:47;;;;;;;44.92;21.17;;;;;;;0.29;69.11;100127.19;5111281;28;20015;-73
2022/01/18 11:32:15;;;;;;;94.03;39.22;;;;;;;0.35;69.08;100117.50;5110175;28;20480;-69
2022/01/18 11:35:03;;;;;;;60.25;21.98;;;;;;;0.43;69.70;100106.59;5110324;28;20059;-72
2022/01/18 11:37:54;;;;;;;24.98;10.95;;;;;;;0.50;69.50;100113.94;5110987;28;20032;-72
2022/01/18 11:40:20;;;;;;;22.00;10.20;;;;;;;0.56;69.39;100118.56;5063472;28;20080;-73
2022/01/18 11:42:56;;;;;;;11.80;6.78;;;;;;;0.59;69.27;100113.66;5111587;28;20023;-72
2022/01/18 11:45:25;;;;;;;18.38;8.23;;;;;;;0.59;69.83;100129.84;5112020;28;20027;-73
2022/01/18 11:48:11;;;;;;;16.65;9.35;;;;;;;0.57;69.46;100133.75;5110505;28;20031;-71
2022/01/18 11:50:50;;;;;;;16.42;7.70;;;;;;;0.54;69.29;100136.81;5111358;28;20015;-72
2022/01/18 11:53:39;;;;;;;13.30;6.10;;;;;;;0.55;68.96;100130.41;5111392;28;20069;-73
2022/01/18 11:56:09;;;;;;;16.05;5.70;;;;;;;0.56;69.65;100146.44;5093100;28;20367;-71
2022/01/18 11:58:34;;;;;;;12.00;5.40;;;;;;;0.56;69.08;100140.19;5111712;28;20502;-72
2022/01/18 12:01:02;;;;;;;17.98;6.70;;;;;;;0.58;68.36;100138.97;5111363;28;20031;-71
2022/01/18 12:03:40;;;;;;;14.05;5.63;;;;;;;0.56;68.99;100150.97;5110129;27;20057;-71
2022/01/18 12:06:06;;;;;;;12.15;4.57;;;;;;;0.47;68.35;100150.25;5110532;28;20084;-70
2022/01/18 12:08:42;;;;;;;13.27;5.45;;;;;;;0.40;68.87;100152.88;5110319;28;20068;-72
2022/01/18 12:11:28;;;;;;;13.43;5.25;;;;;;;0.41;68.95;100153.69;5106626;28;20031;-73
2022/01/18 12:13:57;;;;;;;21.20;6.93;;;;;;;0.44;69.39;100156.84;5109247;27;20184;-72
2022/01/18 12:16:26;;;;;;;19.88;7.38;;;;;;;0.44;68.99;100161.44;5110340;28;20039;-73
2022/01/18 12:18:58;;;;;;;17.13;5.70;;;;;;;0.50;69.41;100157.13;5109282;28;20408;-73
2022/01/18 12:21:27;;;;;;;16.33;5.75;;;;;;;0.49;68.73;100163.53;5111976;28;20046;-74
2022/01/18 12:23:54;;;;;;;16.48;4.75;;;;;;;0.48;68.84;100169.97;5111043;28;20020;-72
2022/01/18 12:29:21;;;;;;;15.73;5.10;;;;;;;0.42;68.30;100167.00;5109914;28;20130;-72
2022/01/18 12:34:30;;;;;;;15.27;6.10;;;;;;;0.37;68.27;100161.34;5108246;28;20126;-72
2022/01/18 12:39:52;;;;;;;10.82;5.22;;;;;;;0.33;68.59;100156.50;5109322;28;20518;-73